Terminal Aerodrome Forecast
Issued by NWS Wilmington, OH

Current Version | Previous Version | Graphics & Text | Print | Product List | Glossary On
Versions: 1 2 3 4 5 6 7 8 9 10 11 12 13 14 15 16 17 18 19 20 21 22 23 24 25 26 27 28 29
000
FTUS41 KILN 170500
TAFDAY
TAF
KDAY 170540Z 1706/1806 23010KT P6SM OVC012
     FM170900 18008KT P6SM SCT250
     FM171200 21010KT P6SM SCT030 BKN250
     FM171500 23016G26KT P6SM SCT040
     FM172300 26013KT P6SM OVC030=

USA.gov is the U.S. government's official web portal to all federal, state and local government web resources and services.